createdAt,value
2022-08-17T00:00:08.411Z,0.00
2022-08-17T00:01:08.492Z,0.00
2022-08-17T00:02:21.183Z,0.00
2022-08-17T00:03:09.392Z,0.00
2022-08-17T00:04:11.832Z,0.00
2022-08-17T00:05:08.369Z,0.00
2022-08-17T00:06:08.355Z,0.00
2022-08-17T00:07:08.338Z,0.00
2022-08-17T00:08:08.319Z,0.00
2022-08-17T00:09:08.309Z,0.00
2022-08-17T00:10:08.309Z,0.00
2022-08-17T00:11:08.300Z,0.00
2022-08-17T00:12:43.550Z,0.00
2022-08-17T00:13:09.267Z,0.00
2022-08-17T00:14:08.259Z,0.00
2022-08-17T00:15:10.703Z,0.00
2022-08-17T00:16:08.230Z,0.00
2022-08-17T00:17:08.217Z,0.00
2022-08-17T00:19:02.183Z,0.00
2022-08-17T00:19:09.198Z,0.00
2022-08-17T00:20:08.187Z,0.00
2022-08-17T00:21:10.499Z,0.00
2022-08-17T00:22:33.585Z,0.00
2022-08-17T00:23:09.147Z,0.00
2022-08-17T00:24:08.137Z,0.00
2022-08-17T00:25:08.127Z,0.00
2022-08-17T00:26:08.118Z,0.00
2022-08-17T00:27:08.347Z,0.00
2022-08-17T00:28:08.086Z,0.00
2022-08-17T00:29:08.076Z,0.00
2022-08-17T00:30:08.067Z,0.00
2022-08-17T00:31:08.057Z,0.00
2022-08-17T00:33:14.778Z,0.00
2022-08-17T00:33:22.894Z,0.00
2022-08-17T00:34:09.017Z,0.00
2022-08-17T00:35:08.007Z,0.00
2022-08-17T00:36:07.996Z,0.00
2022-08-17T00:37:07.987Z,0.00
2022-08-17T00:38:07.984Z,0.00
2022-08-17T00:39:07.967Z,0.00
2022-08-17T00:40:08.039Z,0.00
2022-08-17T00:41:07.936Z,0.00
2022-08-17T00:42:07.925Z,0.00
2022-08-17T00:43:07.926Z,0.00
2022-08-17T00:44:07.905Z,0.00
2022-08-17T00:45:07.895Z,0.00
2022-08-17T00:46:07.876Z,0.00
2022-08-17T00:47:07.865Z,0.00
2022-08-17T00:48:11.495Z,0.00
2022-08-17T00:49:08.845Z,0.00
2022-08-17T00:50:07.836Z,0.00
2022-08-17T00:51:07.909Z,0.00
2022-08-17T00:52:11.928Z,0.00
2022-08-17T00:53:07.804Z,0.00
2022-08-17T00:54:07.844Z,0.00
2022-08-17T00:55:07.787Z,0.00
2022-08-17T00:56:07.763Z,0.00
2022-08-17T00:57:07.783Z,0.00
2022-08-17T00:58:07.734Z,0.00
2022-08-17T00:59:07.723Z,0.00
2022-08-17T01:00:07.723Z,0.00
2022-08-17T01:01:07.754Z,0.00
2022-08-17T01:02:07.691Z,0.00
2022-08-17T01:03:07.684Z,0.00
2022-08-17T01:04:07.665Z,0.00
2022-08-17T01:05:07.653Z,0.00
2022-08-17T01:06:07.654Z,0.00
2022-08-17T01:07:07.633Z,0.00
2022-08-17T01:08:07.614Z,0.00
2022-08-17T01:09:07.613Z,0.00
2022-08-17T01:10:07.602Z,0.00
2022-08-17T01:11:08.623Z,0.00
2022-08-17T01:12:07.573Z,0.00
2022-08-17T01:13:07.562Z,0.00
2022-08-17T01:14:07.551Z,0.00
2022-08-17T01:15:07.541Z,0.00
2022-08-17T01:16:07.522Z,0.00
2022-08-17T01:17:07.541Z,0.00
2022-08-17T01:18:07.515Z,0.00
2022-08-17T01:19:07.501Z,0.00
2022-08-17T01:20:07.483Z,0.00
2022-08-17T01:21:07.462Z,0.00
2022-08-17T01:22:07.461Z,0.00
2022-08-17T01:23:07.451Z,0.00
2022-08-17T01:24:07.433Z,0.00
2022-08-17T01:25:07.421Z,0.00
2022-08-17T01:26:07.411Z,0.00
2022-08-17T01:27:10.178Z,0.00
2022-08-17T01:28:07.401Z,0.00
2022-08-17T01:29:07.371Z,0.00
2022-08-17T01:30:57.047Z,0.00
2022-08-17T01:31:08.350Z,0.00
2022-08-17T01:32:07.342Z,0.00
2022-08-17T01:33:07.340Z,0.00
2022-08-17T01:34:07.319Z,0.00
2022-08-17T01:35:07.299Z,0.00
2022-08-17T01:36:07.373Z,0.00
2022-08-17T01:37:07.280Z,0.00
2022-08-17T01:38:07.283Z,0.00
2022-08-17T01:39:07.278Z,0.00
2022-08-17T01:40:07.339Z,0.00
2022-08-17T01:41:07.237Z,0.00
2022-08-17T01:42:07.229Z,0.00
2022-08-17T01:43:08.149Z,0.00
2022-08-17T01:44:07.231Z,0.00
2022-08-17T01:45:07.201Z,0.00
2022-08-17T01:46:07.178Z,0.00
2022-08-17T01:47:07.199Z,0.00
2022-08-17T01:48:07.161Z,0.00
2022-08-17T01:49:07.150Z,0.00
2022-08-17T01:50:07.159Z,0.00
2022-08-17T01:51:07.118Z,0.00
2022-08-17T01:52:07.109Z,0.00
2022-08-17T01:53:07.088Z,0.00
2022-08-17T01:54:07.790Z,0.00
2022-08-17T01:55:07.076Z,0.00
2022-08-17T01:56:07.076Z,0.00
2022-08-17T01:57:07.057Z,0.00
2022-08-17T01:58:07.038Z,0.00
2022-08-17T01:59:07.043Z,0.00
2022-08-17T02:00:07.016Z,0.00
2022-08-17T02:01:07.098Z,0.00
2022-08-17T02:02:07.006Z,0.00
2022-08-17T02:03:06.982Z,0.00
2022-08-17T02:04:06.971Z,0.00
2022-08-17T02:05:06.957Z,0.00
2022-08-17T02:06:27.130Z,0.00
2022-08-17T02:07:07.937Z,0.00
2022-08-17T02:08:06.925Z,0.00
2022-08-17T02:09:06.909Z,0.00
2022-08-17T02:10:20.060Z,0.00
2022-08-17T02:11:11.249Z,0.00
2022-08-17T02:12:37.966Z,0.00
2022-08-17T02:13:07.875Z,0.00
2022-08-17T02:14:06.855Z,0.00
2022-08-17T02:15:06.836Z,0.00
2022-08-17T02:16:06.826Z,0.00
2022-08-17T02:17:06.817Z,0.00
2022-08-17T02:18:06.816Z,0.00
2022-08-17T02:19:06.786Z,0.00
2022-08-17T02:20:06.785Z,0.00
2022-08-17T02:21:06.774Z,0.00
2022-08-17T02:22:06.755Z,0.00
2022-08-17T02:23:06.760Z,0.00
2022-08-17T02:24:06.765Z,0.00
2022-08-17T02:25:06.724Z,0.00
2022-08-17T02:26:06.712Z,0.00
2022-08-17T02:27:06.704Z,0.00
2022-08-17T02:28:06.683Z,0.00
2022-08-17T02:29:06.676Z,0.00
2022-08-17T02:30:59.330Z,0.00
2022-08-17T02:31:07.652Z,0.00
2022-08-17T02:32:06.634Z,0.00
2022-08-17T02:33:09.235Z,0.00
2022-08-17T02:34:06.613Z,0.00
2022-08-17T02:35:06.613Z,0.00
2022-08-17T02:36:06.623Z,0.00
2022-08-17T02:37:06.584Z,0.00
2022-08-17T02:38:06.563Z,0.00
2022-08-17T02:39:06.562Z,0.00
2022-08-17T02:40:06.589Z,0.00
2022-08-17T02:41:06.533Z,0.00
2022-08-17T02:42:06.540Z,0.00
2022-08-17T02:43:06.516Z,0.00
2022-08-17T02:44:06.494Z,0.00
2022-08-17T02:45:06.493Z,0.00
2022-08-17T02:46:06.471Z,0.00
2022-08-17T02:47:06.472Z,0.00
2022-08-17T02:48:06.461Z,0.00
2022-08-17T02:49:06.442Z,0.00
2022-08-17T02:50:06.432Z,0.00
2022-08-17T02:51:06.421Z,0.00
2022-08-17T02:52:06.401Z,0.00
2022-08-17T02:53:06.639Z,0.00
2022-08-17T02:54:40.471Z,0.00
2022-08-17T02:55:07.370Z,0.00
2022-08-17T02:56:06.362Z,0.00
2022-08-17T02:57:06.353Z,0.00
2022-08-17T02:58:06.330Z,0.00
2022-08-17T02:59:06.351Z,0.00
2022-08-17T03:00:06.311Z,0.00
2022-08-17T03:01:06.306Z,0.00
2022-08-17T03:02:06.342Z,0.00
2022-08-17T03:03:06.280Z,0.00
2022-08-17T03:04:06.272Z,0.00
2022-08-17T03:05:06.291Z,0.00
2022-08-17T03:06:06.239Z,0.00
2022-08-17T03:07:06.239Z,0.00
2022-08-17T03:08:06.219Z,0.00
2022-08-17T03:09:06.210Z,0.00
2022-08-17T03:10:06.199Z,0.00
2022-08-17T03:11:06.200Z,0.00
2022-08-17T03:12:06.179Z,0.00
2022-08-17T03:13:06.168Z,0.00
2022-08-17T03:14:06.150Z,0.00
2022-08-17T03:15:06.138Z,0.00
2022-08-17T03:16:06.139Z,0.00
2022-08-17T03:17:06.145Z,0.00
2022-08-17T03:18:06.106Z,0.00
2022-08-17T03:19:06.098Z,0.00
2022-08-17T03:20:06.078Z,0.00
2022-08-17T03:21:06.081Z,0.00
2022-08-17T03:22:36.186Z,0.00
2022-08-17T03:23:07.047Z,0.00
2022-08-17T03:24:09.039Z,0.00
2022-08-17T03:25:06.694Z,0.00
2022-08-17T03:26:06.019Z,0.00
2022-08-17T03:27:07.006Z,0.00
2022-08-17T03:28:05.987Z,0.00
2022-08-17T03:29:05.978Z,0.00
2022-08-17T03:30:05.969Z,0.00
2022-08-17T03:31:05.968Z,0.00
2022-08-17T03:32:05.948Z,0.00
2022-08-17T03:33:05.937Z,0.00
2022-08-17T03:34:05.926Z,0.00
2022-08-17T03:35:05.946Z,0.00
2022-08-17T03:36:05.896Z,0.00
2022-08-17T03:37:05.897Z,0.00
2022-08-17T03:38:05.867Z,0.00
2022-08-17T03:39:05.864Z,0.00
2022-08-17T03:40:05.905Z,0.00
2022-08-17T03:41:05.844Z,0.00
2022-08-17T03:42:05.826Z,0.00
2022-08-17T03:43:05.827Z,0.00
2022-08-17T03:44:05.820Z,0.00
2022-08-17T03:45:05.797Z,0.00
2022-08-17T03:46:05.887Z,0.00
2022-08-17T03:47:06.771Z,0.00
2022-08-17T03:48:05.755Z,0.00
2022-08-17T03:49:05.754Z,0.00
2022-08-17T03:50:05.733Z,0.00
2022-08-17T03:51:05.725Z,0.00
2022-08-17T03:52:05.729Z,0.00
2022-08-17T03:53:05.704Z,0.00
2022-08-17T03:54:05.685Z,0.00
2022-08-17T03:55:05.687Z,0.00
2022-08-17T03:56:05.664Z,0.00
2022-08-17T03:57:05.657Z,0.00
2022-08-17T03:58:05.657Z,0.00
2022-08-17T03:59:05.635Z,0.00
2022-08-17T04:00:05.613Z,0.00
2022-08-17T04:01:05.650Z,0.00
2022-08-17T04:02:05.594Z,0.00
2022-08-17T04:03:05.603Z,0.00
2022-08-17T04:04:05.563Z,0.00
2022-08-17T04:05:05.565Z,0.00
2022-08-17T04:06:05.544Z,0.00
2022-08-17T04:07:05.546Z,0.00
2022-08-17T04:08:05.535Z,0.00
2022-08-17T04:09:05.523Z,0.00
2022-08-17T04:10:05.493Z,0.00
2022-08-17T04:11:05.500Z,0.00
2022-08-17T04:12:05.492Z,0.00
2022-08-17T04:13:05.482Z,0.00
2022-08-17T04:14:05.471Z,0.00
2022-08-17T04:15:05.444Z,0.00
2022-08-17T04:16:05.433Z,0.00
2022-08-17T04:17:05.424Z,0.00
2022-08-17T04:18:07.338Z,0.00
2022-08-17T04:19:05.404Z,0.00
2022-08-17T04:20:05.382Z,0.00
2022-08-17T04:21:05.382Z,0.00
2022-08-17T04:22:05.362Z,0.00
2022-08-17T04:23:05.352Z,0.00
2022-08-17T04:24:05.341Z,0.00
2022-08-17T04:25:05.409Z,5.62
2022-08-17T04:26:05.311Z,5.62
2022-08-17T04:27:05.303Z,5.62
2022-08-17T04:28:05.293Z,5.62
2022-08-17T04:29:06.282Z,5.62
2022-08-17T04:30:05.271Z,5.62
2022-08-17T04:31:05.271Z,5.62
2022-08-17T04:32:05.251Z,5.62
2022-08-17T04:33:07.281Z,5.62
2022-08-17T04:34:05.220Z,5.62
2022-08-17T04:35:05.221Z,5.62
2022-08-17T04:36:05.200Z,5.62
2022-08-17T04:37:05.199Z,5.62
2022-08-17T04:38:05.172Z,5.62
2022-08-17T04:39:05.172Z,11.25
2022-08-17T04:40:05.244Z,11.25
2022-08-17T04:41:05.139Z,11.25
2022-08-17T04:42:05.128Z,11.25
2022-08-17T04:43:05.119Z,11.25
2022-08-17T04:44:05.117Z,11.25
2022-08-17T04:45:05.100Z,11.25
2022-08-17T04:46:05.093Z,11.25
2022-08-17T04:47:05.084Z,11.25
2022-08-17T04:48:05.057Z,11.25
2022-08-17T04:49:05.048Z,11.25
2022-08-17T04:50:05.037Z,11.25
2022-08-17T04:51:05.087Z,11.25
2022-08-17T04:52:05.019Z,16.88
2022-08-17T04:53:05.021Z,16.88
2022-08-17T04:54:04.988Z,16.88
2022-08-17T04:55:04.987Z,16.88
2022-08-17T04:56:04.967Z,16.88
2022-08-17T04:57:04.968Z,16.88
2022-08-17T04:58:04.949Z,16.88
2022-08-17T04:59:04.972Z,22.50
2022-08-17T05:00:04.917Z,22.50
2022-08-17T05:01:04.933Z,22.50
2022-08-17T05:02:04.914Z,22.50
2022-08-17T05:03:04.889Z,22.50
2022-08-17T05:04:32.982Z,22.50
2022-08-17T05:05:05.868Z,22.50
2022-08-17T05:06:04.846Z,28.12
2022-08-17T05:07:04.872Z,28.12
2022-08-17T05:08:04.826Z,28.12
2022-08-17T05:09:04.821Z,28.12
2022-08-17T05:10:04.805Z,28.12
2022-08-17T05:11:04.795Z,28.12
2022-08-17T05:12:04.805Z,22.50
2022-08-17T05:13:04.776Z,28.12
2022-08-17T05:14:04.756Z,28.12
2022-08-17T05:15:04.756Z,33.75
2022-08-17T05:16:04.738Z,33.75
2022-08-17T05:17:09.402Z,33.75
2022-08-17T05:18:05.724Z,33.75
2022-08-17T05:19:04.705Z,33.75
2022-08-17T05:20:04.685Z,33.75
2022-08-17T05:21:04.688Z,33.75
2022-08-17T05:22:04.665Z,33.75
2022-08-17T05:23:04.659Z,33.75
2022-08-17T05:24:06.066Z,33.75
2022-08-17T05:25:05.633Z,33.75
2022-08-17T05:26:04.614Z,33.75
2022-08-17T05:27:06.501Z,33.75
2022-08-17T05:28:04.602Z,39.38
2022-08-17T05:29:04.614Z,39.38
2022-08-17T05:30:04.574Z,39.38
2022-08-17T05:31:04.564Z,39.38
2022-08-17T05:32:04.553Z,39.38
2022-08-17T05:33:05.545Z,39.38
2022-08-17T05:34:04.532Z,39.38
2022-08-17T05:35:04.532Z,45.00
2022-08-17T05:36:04.506Z,45.00
2022-08-17T05:37:04.496Z,45.00
2022-08-17T05:38:04.473Z,45.00
2022-08-17T05:39:04.474Z,50.62
2022-08-17T05:40:04.555Z,50.62
2022-08-17T05:41:04.446Z,50.62
2022-08-17T05:42:04.442Z,50.62
2022-08-17T05:43:04.422Z,50.62
2022-08-17T05:44:05.567Z,56.25
2022-08-17T05:45:04.422Z,50.62
2022-08-17T05:46:04.391Z,50.62
2022-08-17T05:47:04.376Z,56.25
2022-08-17T05:48:04.362Z,56.25
2022-08-17T05:49:04.361Z,56.25
2022-08-17T05:50:09.485Z,56.25
2022-08-17T05:51:05.344Z,56.25
2022-08-17T05:52:04.311Z,56.25
2022-08-17T05:53:04.311Z,56.25
2022-08-17T05:54:04.291Z,56.25
2022-08-17T05:55:04.283Z,61.88
2022-08-17T05:56:04.272Z,61.88
2022-08-17T05:57:04.275Z,61.88
2022-08-17T05:58:04.241Z,61.88
2022-08-17T05:59:04.232Z,61.88
2022-08-17T06:00:04.221Z,61.88
2022-08-17T06:01:04.274Z,67.50
2022-08-17T06:02:04.258Z,67.50
2022-08-17T06:03:04.193Z,67.50
2022-08-17T06:04:04.181Z,67.50
2022-08-17T06:05:04.170Z,67.50
2022-08-17T06:06:04.151Z,67.50
2022-08-17T06:07:04.161Z,67.50
2022-08-17T06:08:04.130Z,67.50
2022-08-17T06:09:04.120Z,67.50
2022-08-17T06:10:04.102Z,73.12
2022-08-17T06:11:04.100Z,73.12
2022-08-17T06:12:04.082Z,73.12
2022-08-17T06:13:04.090Z,73.12
2022-08-17T06:14:04.059Z,73.12
2022-08-17T06:15:04.050Z,73.12
2022-08-17T06:16:04.039Z,73.12
2022-08-17T06:17:04.038Z,73.12
2022-08-17T06:18:04.011Z,73.12
2022-08-17T06:19:04.010Z,73.12
2022-08-17T06:20:03.989Z,73.12
2022-08-17T06:21:03.980Z,73.12
2022-08-17T06:22:03.981Z,78.75
2022-08-17T06:23:03.968Z,78.75
2022-08-17T06:24:03.939Z,78.75
2022-08-17T06:25:03.930Z,78.75
2022-08-17T06:26:04.919Z,78.75
2022-08-17T06:27:03.911Z,78.75
2022-08-17T06:28:03.908Z,67.50
2022-08-17T06:29:03.889Z,73.12
2022-08-17T06:30:03.872Z,78.75
2022-08-17T06:31:03.871Z,78.75
2022-08-17T06:32:03.850Z,78.75
2022-08-17T06:33:03.839Z,78.75
2022-08-17T06:34:03.838Z,78.75
2022-08-17T06:35:03.818Z,78.75
2022-08-17T06:36:07.974Z,78.75
2022-08-17T06:37:04.796Z,78.75
2022-08-17T06:38:03.788Z,78.75
2022-08-17T06:39:03.768Z,78.75
2022-08-17T06:40:03.798Z,78.75
2022-08-17T06:41:03.755Z,78.75
2022-08-17T06:42:03.738Z,78.75
2022-08-17T06:43:06.839Z,78.75
2022-08-17T06:44:03.708Z,84.38
2022-08-17T06:45:03.707Z,84.38
2022-08-17T06:46:04.110Z,84.38
2022-08-17T06:47:03.678Z,84.38
2022-08-17T06:48:03.658Z,84.38
2022-08-17T06:49:03.667Z,84.38
2022-08-17T06:50:03.638Z,84.38
2022-08-17T06:51:03.637Z,84.38
2022-08-17T06:52:03.617Z,84.38
2022-08-17T06:53:03.609Z,84.38
2022-08-17T06:54:03.607Z,84.38
2022-08-17T06:55:03.587Z,84.38
2022-08-17T06:56:03.569Z,90.00
2022-08-17T06:57:03.559Z,90.00
2022-08-17T06:58:05.854Z,90.00
2022-08-17T06:59:04.568Z,90.00
2022-08-17T07:00:03.684Z,90.00
2022-08-17T07:01:03.551Z,90.00
2022-08-17T07:02:03.604Z,90.00
2022-08-17T07:03:03.872Z,90.00
2022-08-17T07:04:05.145Z,90.00
2022-08-17T07:05:04.487Z,90.00
2022-08-17T07:06:03.476Z,90.00
2022-08-17T07:07:03.446Z,90.00
2022-08-17T07:08:03.430Z,95.62
2022-08-17T07:09:03.446Z,95.62
2022-08-17T07:10:03.408Z,95.62
2022-08-17T07:11:03.395Z,95.62
2022-08-17T07:12:03.386Z,95.62
2022-08-17T07:13:03.376Z,95.62
2022-08-17T07:14:03.358Z,95.62
2022-08-17T07:15:03.367Z,95.62
2022-08-17T07:16:03.343Z,95.62
2022-08-17T07:17:03.325Z,95.62
2022-08-17T07:18:03.510Z,101.25
2022-08-17T07:19:03.311Z,101.25
2022-08-17T07:20:03.303Z,95.62
2022-08-17T07:21:03.291Z,95.62
2022-08-17T07:22:03.277Z,95.62
2022-08-17T07:23:03.255Z,95.62
2022-08-17T07:24:03.252Z,95.62
2022-08-17T07:25:03.244Z,95.62
2022-08-17T07:26:03.225Z,101.25
2022-08-17T07:27:03.217Z,101.25
2022-08-17T07:28:06.008Z,101.25
2022-08-17T07:29:03.185Z,101.25
2022-08-17T07:30:08.024Z,101.25
2022-08-17T07:31:04.165Z,101.25
2022-08-17T07:32:03.173Z,101.25
2022-08-17T07:33:03.144Z,101.25
2022-08-17T07:34:03.133Z,101.25
2022-08-17T07:35:03.124Z,101.25
2022-08-17T07:36:03.105Z,101.25
2022-08-17T07:37:03.097Z,101.25
2022-08-17T07:38:03.093Z,101.25
2022-08-17T07:39:03.079Z,101.25
2022-08-17T07:40:16.427Z,101.25
2022-08-17T07:41:04.065Z,101.25
2022-08-17T07:42:03.045Z,101.25
2022-08-17T07:43:03.282Z,101.25
2022-08-17T07:44:03.015Z,101.25
2022-08-17T07:45:03.036Z,101.25
2022-08-17T07:46:03.010Z,101.25
2022-08-17T07:47:03.025Z,101.25
2022-08-17T07:48:02.964Z,101.25
2022-08-17T07:49:02.973Z,101.25
2022-08-17T07:50:02.945Z,101.25
2022-08-17T07:51:02.935Z,101.25
2022-08-17T07:52:48.292Z,101.25
2022-08-17T07:53:03.926Z,101.25
2022-08-17T07:54:14.040Z,106.88
2022-08-17T07:55:03.885Z,106.88
2022-08-17T07:56:02.884Z,106.88
2022-08-17T07:57:02.874Z,106.88
2022-08-17T07:58:02.854Z,106.88
2022-08-17T07:59:02.846Z,106.88
2022-08-17T08:00:03.005Z,106.88
2022-08-17T08:01:02.824Z,106.88
2022-08-17T08:02:02.869Z,106.88
2022-08-17T08:03:02.794Z,106.88
2022-08-17T08:04:02.789Z,106.88
2022-08-17T08:05:02.786Z,106.88
2022-08-17T08:06:02.766Z,106.88
2022-08-17T08:07:02.752Z,112.50
2022-08-17T08:08:02.734Z,112.50
2022-08-17T08:09:02.728Z,112.50
2022-08-17T08:10:02.724Z,112.50
2022-08-17T08:11:02.715Z,112.50
2022-08-17T08:12:02.692Z,112.50
2022-08-17T08:13:02.734Z,112.50
2022-08-17T08:14:02.665Z,112.50
2022-08-17T08:15:02.653Z,118.12
2022-08-17T08:16:02.666Z,118.12
2022-08-17T08:17:02.626Z,118.12
2022-08-17T08:18:02.613Z,118.12
2022-08-17T08:19:02.613Z,118.12
2022-08-17T08:20:34.958Z,123.75
2022-08-17T08:21:03.602Z,123.75
2022-08-17T08:22:02.571Z,123.75
2022-08-17T08:23:02.619Z,123.75
2022-08-17T08:24:02.554Z,123.75
2022-08-17T08:25:02.541Z,129.38
2022-08-17T08:26:02.524Z,101.25
2022-08-17T08:27:02.523Z,118.12
2022-08-17T08:28:02.504Z,112.50
2022-08-17T08:29:02.484Z,123.75
2022-08-17T08:30:02.481Z,123.75
2022-08-17T08:31:02.465Z,123.75
2022-08-17T08:32:02.473Z,123.75
2022-08-17T08:33:02.441Z,123.75
2022-08-17T08:34:02.433Z,123.75
2022-08-17T08:35:03.387Z,123.75
2022-08-17T08:36:02.413Z,123.75
2022-08-17T08:37:16.450Z,123.75
2022-08-17T08:38:03.401Z,123.75
2022-08-17T08:39:02.376Z,123.75
2022-08-17T08:40:02.446Z,123.75
2022-08-17T08:41:02.355Z,123.75
2022-08-17T08:42:02.365Z,123.75
2022-08-17T08:43:02.342Z,123.75
2022-08-17T08:44:02.326Z,123.75
2022-08-17T08:45:04.791Z,118.12
2022-08-17T08:46:02.310Z,123.75
2022-08-17T08:47:02.285Z,123.75
2022-08-17T08:48:05.738Z,123.75
2022-08-17T08:49:06.484Z,123.75
2022-08-17T08:50:04.717Z,129.38
2022-08-17T08:51:02.248Z,123.75
2022-08-17T08:52:02.233Z,123.75
2022-08-17T08:53:02.214Z,123.75
2022-08-17T08:54:02.213Z,123.75
2022-08-17T08:55:02.205Z,123.75
2022-08-17T08:56:02.182Z,123.75
2022-08-17T08:57:23.333Z,129.38
2022-08-17T08:58:03.166Z,129.38
2022-08-17T08:59:02.151Z,129.38
2022-08-17T09:00:02.133Z,129.38
2022-08-17T09:01:02.160Z,135.00
2022-08-17T09:02:02.114Z,135.00
2022-08-17T09:03:02.092Z,140.62
2022-08-17T09:04:19.592Z,135.00
2022-08-17T09:05:14.354Z,140.62
2022-08-17T09:06:03.094Z,135.00
2022-08-17T09:07:02.053Z,135.00
2022-08-17T09:08:02.033Z,135.00
2022-08-17T09:09:02.045Z,140.62
2022-08-17T09:10:02.022Z,140.62
2022-08-17T09:11:02.034Z,146.25
2022-08-17T09:12:03.875Z,157.50
2022-08-17T09:13:09.547Z,157.50
2022-08-17T09:14:02.971Z,157.50
2022-08-17T09:15:02.023Z,151.88
2022-08-17T09:16:01.955Z,146.25
2022-08-17T09:17:01.944Z,151.88
2022-08-17T09:18:30.462Z,157.50
2022-08-17T09:19:04.768Z,163.12
2022-08-17T09:20:01.910Z,163.12
2022-08-17T09:21:01.896Z,157.50
2022-08-17T09:22:01.893Z,129.38
2022-08-17T09:23:01.873Z,146.25
2022-08-17T09:24:01.862Z,157.50
2022-08-17T09:25:01.856Z,157.50
2022-08-17T09:26:01.844Z,151.88
2022-08-17T09:27:01.842Z,163.12
2022-08-17T09:28:01.813Z,157.50
2022-08-17T09:29:01.805Z,163.12
2022-08-17T09:30:01.793Z,163.12
2022-08-17T09:31:01.816Z,163.12
2022-08-17T09:32:01.775Z,163.12
2022-08-17T09:33:01.772Z,163.12
2022-08-17T09:34:01.741Z,168.75
2022-08-17T09:35:01.747Z,163.12
2022-08-17T09:36:01.724Z,151.88
2022-08-17T09:37:01.712Z,146.25
2022-08-17T09:38:01.697Z,146.25
2022-08-17T09:39:01.684Z,174.38
2022-08-17T09:40:01.796Z,174.38
2022-08-17T09:41:01.693Z,180.00
2022-08-17T09:42:01.673Z,185.62
2022-08-17T09:43:01.635Z,185.62
2022-08-17T09:44:01.624Z,180.00
2022-08-17T09:45:01.612Z,185.62
2022-08-17T09:46:01.633Z,180.00
2022-08-17T09:47:01.583Z,180.00
2022-08-17T09:48:01.581Z,180.00
2022-08-17T09:49:01.564Z,168.75
2022-08-17T09:50:01.557Z,168.75
2022-08-17T09:51:05.342Z,168.75
2022-08-17T09:52:01.544Z,168.75
2022-08-17T09:53:01.527Z,163.12
2022-08-17T09:54:20.922Z,168.75
2022-08-17T09:55:02.493Z,168.75
2022-08-17T09:56:01.482Z,174.38
2022-08-17T09:57:27.887Z,174.38
2022-08-17T09:58:02.550Z,168.75
2022-08-17T09:59:01.453Z,174.38
2022-08-17T10:00:01.441Z,157.50
2022-08-17T10:01:01.496Z,157.50
2022-08-17T10:02:01.414Z,168.75
2022-08-17T10:03:01.422Z,174.38
2022-08-17T10:04:01.402Z,168.75
2022-08-17T10:05:01.387Z,157.50
2022-08-17T10:06:01.374Z,168.75
2022-08-17T10:07:01.372Z,196.88
2022-08-17T10:08:01.346Z,202.50
2022-08-17T10:09:01.342Z,202.50
2022-08-17T10:10:01.326Z,208.12
2022-08-17T10:11:01.313Z,202.50
2022-08-17T10:12:01.324Z,191.25
2022-08-17T10:13:01.302Z,196.88
2022-08-17T10:14:01.282Z,191.25
2022-08-17T10:15:08.117Z,180.00
2022-08-17T10:16:02.256Z,180.00
2022-08-17T10:17:01.245Z,191.25
2022-08-17T10:18:01.247Z,180.00
2022-08-17T10:19:01.231Z,174.38
2022-08-17T10:20:01.306Z,202.50
2022-08-17T10:21:01.202Z,196.88
2022-08-17T10:22:32.461Z,202.50
2022-08-17T10:23:02.194Z,208.12
2022-08-17T10:24:01.163Z,191.25
2022-08-17T10:25:21.760Z,174.38
2022-08-17T10:26:02.145Z,163.12
2022-08-17T10:27:01.135Z,191.25
2022-08-17T10:28:01.122Z,168.75
2022-08-17T10:29:01.124Z,146.25
2022-08-17T10:30:01.093Z,140.62
2022-08-17T10:31:31.052Z,146.25
2022-08-17T10:32:03.017Z,135.00
2022-08-17T10:33:01.074Z,151.88
2022-08-17T10:34:01.064Z,163.12
2022-08-17T10:35:01.060Z,168.75
2022-08-17T10:36:01.030Z,180.00
2022-08-17T10:37:01.052Z,163.12
2022-08-17T10:38:01.002Z,180.00
2022-08-17T10:39:00.994Z,196.88
2022-08-17T10:40:01.039Z,180.00
2022-08-17T10:41:01.001Z,163.12
2022-08-17T10:42:00.991Z,191.25
2022-08-17T10:43:00.953Z,219.38
2022-08-17T10:44:40.425Z,208.12
2022-08-17T10:45:01.930Z,196.88
2022-08-17T10:46:09.458Z,213.75
2022-08-17T10:47:01.912Z,213.75
2022-08-17T10:48:05.198Z,208.12
2022-08-17T10:49:01.872Z,196.88
2022-08-17T10:50:00.863Z,174.38
2022-08-17T10:51:00.864Z,168.75
2022-08-17T10:52:00.860Z,135.00
2022-08-17T10:53:00.833Z,123.75
2022-08-17T10:54:00.856Z,123.75
2022-08-17T10:55:00.813Z,123.75
2022-08-17T10:56:00.792Z,140.62
2022-08-17T10:57:00.783Z,151.88
2022-08-17T10:58:00.792Z,140.62
2022-08-17T10:59:00.772Z,123.75
2022-08-17T11:00:00.753Z,157.50
2022-08-17T11:01:00.798Z,247.50
2022-08-17T11:02:00.733Z,225.00
2022-08-17T11:03:00.725Z,225.00
2022-08-17T11:04:00.717Z,219.38
2022-08-17T11:05:00.693Z,196.88
2022-08-17T11:06:00.684Z,202.50
2022-08-17T11:07:00.673Z,213.75
2022-08-17T11:08:00.700Z,225.00
2022-08-17T11:09:00.655Z,225.00
2022-08-17T11:10:00.662Z,225.00
2022-08-17T11:11:00.622Z,253.12
2022-08-17T11:12:00.612Z,253.12
2022-08-17T11:13:00.603Z,258.75
2022-08-17T11:14:00.594Z,253.12
2022-08-17T11:15:00.588Z,258.75
2022-08-17T11:16:03.534Z,253.12
2022-08-17T11:17:01.563Z,236.25
2022-08-17T11:18:00.543Z,241.88
2022-08-17T11:19:00.532Z,258.75
2022-08-17T11:20:00.523Z,264.38
2022-08-17T11:21:00.561Z,292.50
2022-08-17T11:22:00.601Z,298.12
2022-08-17T11:23:00.492Z,303.75
2022-08-17T11:24:00.472Z,303.75
2022-08-17T11:25:00.461Z,303.75
2022-08-17T11:26:00.463Z,303.75
2022-08-17T11:27:00.461Z,286.88
2022-08-17T11:28:00.432Z,298.12
2022-08-17T11:29:00.421Z,281.25
2022-08-17T11:30:02.489Z,281.25
2022-08-17T11:31:00.391Z,281.25
2022-08-17T11:32:00.392Z,253.12
2022-08-17T11:33:00.400Z,337.50
2022-08-17T11:34:00.363Z,360.00
2022-08-17T11:35:00.352Z,315.00
2022-08-17T11:36:00.343Z,326.25
2022-08-17T11:37:00.322Z,151.88
2022-08-17T11:38:00.322Z,151.88
2022-08-17T11:39:00.313Z,151.88
2022-08-17T11:40:00.380Z,157.50
2022-08-17T11:41:00.296Z,151.88
2022-08-17T11:42:00.291Z,151.88
2022-08-17T11:43:00.252Z,168.75
2022-08-17T11:44:00.261Z,151.88
2022-08-17T11:45:00.232Z,146.25
2022-08-17T11:46:00.223Z,140.62
2022-08-17T11:47:00.213Z,135.00
2022-08-17T11:48:26.042Z,129.38
2022-08-17T11:49:01.202Z,135.00
2022-08-17T11:50:00.186Z,140.62
2022-08-17T11:51:00.163Z,140.62
2022-08-17T11:52:00.162Z,140.62
2022-08-17T11:53:00.142Z,140.62
2022-08-17T11:54:30.587Z,140.62
2022-08-17T11:55:24.206Z,146.25
2022-08-17T11:56:01.113Z,146.25
2022-08-17T11:57:00.102Z,140.62
2022-08-17T11:58:00.091Z,146.25
2022-08-17T11:59:00.075Z,140.62
2022-08-17T12:00:00.100Z,140.62
2022-08-17T12:01:00.060Z,140.62
2022-08-17T12:02:00.065Z,146.25
2022-08-17T12:03:00.032Z,157.50
2022-08-17T12:04:00.106Z,180.00
2022-08-17T12:05:00.012Z,191.25
2022-08-17T12:06:00.004Z,219.38
2022-08-17T12:06:59.993Z,191.25
2022-08-17T12:07:59.979Z,180.00
2022-08-17T12:08:59.962Z,219.38
2022-08-17T12:09:59.954Z,264.38
2022-08-17T12:10:59.942Z,213.75
2022-08-17T12:12:13.117Z,135.00
2022-08-17T12:13:00.913Z,118.12
2022-08-17T12:13:59.903Z,112.50
2022-08-17T12:15:10.459Z,118.12
2022-08-17T12:16:00.882Z,129.38
2022-08-17T12:16:59.872Z,146.25
2022-08-17T12:17:59.872Z,151.88
2022-08-17T12:18:59.851Z,174.38
2022-08-17T12:19:59.842Z,230.62
2022-08-17T12:20:59.830Z,196.88
2022-08-17T12:21:59.812Z,208.12
2022-08-17T12:22:59.805Z,219.38
2022-08-17T12:23:59.805Z,208.12
2022-08-17T12:24:59.785Z,196.88
2022-08-17T12:25:59.772Z,163.12
2022-08-17T12:26:59.764Z,174.38
2022-08-17T12:28:06.168Z,185.62
2022-08-17T12:29:01.053Z,185.62
2022-08-17T12:29:59.740Z,191.25
2022-08-17T12:30:59.714Z,185.62
2022-08-17T12:31:59.704Z,168.75
2022-08-17T12:32:59.698Z,118.12
2022-08-17T12:33:59.683Z,123.75
2022-08-17T12:34:59.672Z,129.38
2022-08-17T12:35:59.883Z,157.50
2022-08-17T12:36:59.642Z,163.12
2022-08-17T12:37:59.653Z,146.25
2022-08-17T12:38:59.625Z,157.50
2022-08-17T12:40:00.666Z,135.00
2022-08-17T12:40:59.604Z,146.25
2022-08-17T12:42:02.395Z,168.75
2022-08-17T12:42:59.572Z,146.25
2022-08-17T12:43:59.563Z,146.25
2022-08-17T12:44:59.553Z,208.12
2022-08-17T12:45:59.545Z,140.62
2022-08-17T12:46:59.534Z,140.62
2022-08-17T12:47:59.534Z,135.00
2022-08-17T12:49:00.189Z,135.00
2022-08-17T12:49:59.502Z,135.00
2022-08-17T12:50:59.492Z,140.62